Time;durP1;ratioP1;P1;durP2;ratioP2;P2;SDS_P1;SDS_P2;PMS_P1;PMS_P2;Temp;Humidity;BMP_temperature;BMP_pressure;BME280_temperature;BME280_humidity;BME280_pressure;Samples;Min_cycle;Max_cycle;Signal;HPM_P1;HPM_P2
2021/03/05 00:01:13;;;;;;;13.60;8.75;;;;;;;;;;5052662;28;20028;-65
2021/03/05 00:03:39;;;;;;;11.38;7.03;;;;;;;;;;5052687;28;20029;-65
2021/03/05 00:06:05;;;;;;;11.15;7.82;;;;;;;;;;5052089;28;20032;-65
2021/03/05 00:08:31;;;;;;;15.38;7.78;;;;;;;;;;5052864;28;20025;-65
2021/03/05 00:10:57;;;;;;;13.50;9.32;;;;;;;;;;5051627;28;20037;-65
2021/03/05 00:13:25;;;;;;;14.20;8.05;;;;;;;;;;5052809;28;20396;-65
2021/03/05 00:15:51;;;;;;;11.32;7.55;;;;;;;;;;5051775;28;20100;-65
2021/03/05 00:18:18;;;;;;;9.00;7.90;;;;;;;;;;5052865;28;20527;-65
2021/03/05 00:20:45;;;;;;;9.77;7.20;;;;;;;;;;5051589;28;20025;-65
2021/03/05 00:23:11;;;;;;;17.15;7.70;;;;;;;;;;5052625;28;20095;-65
2021/03/05 00:25:38;;;;;;;14.38;7.97;;;;;;;;;;5052393;28;20025;-65
2021/03/05 00:28:04;;;;;;;10.85;7.28;;;;;;;;;;5052161;28;20390;-65
2021/03/05 00:30:30;;;;;;;12.10;7.38;;;;;;;;;;5052181;28;20052;-65
2021/03/05 00:32:56;;;;;;;11.82;7.32;;;;;;;;;;5051559;28;20454;-65
2021/03/05 00:35:23;;;;;;;14.32;8.02;;;;;;;;;;5052144;28;20121;-65
2021/03/05 00:37:49;;;;;;;8.63;6.80;;;;;;;;;;5051892;28;20051;-65
2021/03/05 00:40:16;;;;;;;19.60;10.85;;;;;;;;;;5052137;28;20029;-65
2021/03/05 00:42:43;;;;;;;14.75;8.48;;;;;;;;;;5051514;28;20033;-65
2021/03/05 00:45:10;;;;;;;13.10;7.82;;;;;;;;;;5051986;28;20365;-65
2021/03/05 00:47:36;;;;;;;18.60;9.48;;;;;;;;;;5052370;28;20036;-65
2021/03/05 00:50:06;;;;;;;15.50;7.65;;;;;;;;;;5051418;28;20099;-65
2021/03/05 00:52:33;;;;;;;10.32;7.78;;;;;;;;;;5052120;28;20403;-65
2021/03/05 00:54:59;;;;;;;10.60;8.05;;;;;;;;;;5051341;28;20459;-65
2021/03/05 00:57:25;;;;;;;10.52;7.65;;;;;;;;;;5051884;28;20052;-65
2021/03/05 00:59:51;;;;;;;9.60;7.25;;;;;;;;;;5050793;28;20033;-65
2021/03/05 01:02:17;;;;;;;13.82;8.55;;;;;;;;;;5051855;28;20037;-65
2021/03/05 01:04:43;;;;;;;11.65;9.13;;;;;;;;;;5051141;28;20542;-65
2021/03/05 01:07:10;;;;;;;13.25;7.47;;;;;;;;;;5051291;28;20416;-65
2021/03/05 01:09:36;;;;;;;9.65;7.78;;;;;;;;;;5051502;28;20045;-65
2021/03/05 01:12:02;;;;;;;11.43;7.60;;;;;;;;;;5050209;28;20033;-65
2021/03/05 01:14:28;;;;;;;13.15;7.93;;;;;;;;;;5051325;28;20029;-65
2021/03/05 01:16:54;;;;;;;17.40;8.57;;;;;;;;;;5050761;28;20033;-65
2021/03/05 01:19:21;;;;;;;13.35;8.30;;;;;;;;;;5051615;28;20024;-65
2021/03/05 01:21:47;;;;;;;12.60;6.90;;;;;;;;;;5050591;28;20063;-65
2021/03/05 01:24:13;;;;;;;12.50;7.50;;;;;;;;;;5051064;28;20033;-65
2021/03/05 01:26:40;;;;;;;10.55;6.95;;;;;;;;;;5051295;28;20021;-65
2021/03/05 01:29:07;;;;;;;16.63;8.20;;;;;;;;;;5051291;28;20049;-65
2021/03/05 01:31:33;;;;;;;13.30;9.07;;;;;;;;;;5051352;28;20025;-65
2021/03/05 01:33:59;;;;;;;12.18;7.82;;;;;;;;;;5050425;28;20037;-65
2021/03/05 01:36:26;;;;;;;13.82;7.38;;;;;;;;;;5051014;28;20472;-65
2021/03/05 01:38:52;;;;;;;14.48;7.60;;;;;;;;;;5050499;28;20029;-65
2021/03/05 01:41:18;;;;;;;8.93;7.60;;;;;;;;;;5051090;28;20029;-65
2021/03/05 01:43:44;;;;;;;9.10;7.40;;;;;;;;;;5050412;28;20629;-65
2021/03/05 01:46:10;;;;;;;12.23;7.63;;;;;;;;;;5051150;28;20071;-65
2021/03/05 01:48:38;;;;;;;11.55;8.00;;;;;;;;;;5050977;28;20025;-65
2021/03/05 01:51:19;;;;;;;12.25;7.63;;;;;;;;;;5050306;28;20044;-65
2021/03/05 01:53:46;;;;;;;9.80;7.22;;;;;;;;;;5050257;28;20064;-65
2021/03/05 01:56:30;;;;;;;14.23;8.23;;;;;;;;;;5051120;28;20029;-65
2021/03/05 01:58:56;;;;;;;12.20;7.60;;;;;;;;;;5050391;28;20072;-65
2021/03/05 02:01:23;;;;;;;13.85;8.30;;;;;;;;;;5050280;28;20033;-65
2021/03/05 02:03:49;;;;;;;9.15;7.25;;;;;;;;;;5050085;28;20028;-65
2021/03/05 02:06:16;;;;;;;10.65;6.25;;;;;;;;;;5050135;28;20029;-65
2021/03/05 02:08:42;;;;;;;19.23;8.73;;;;;;;;;;5049849;28;20029;-65
2021/03/05 02:11:08;;;;;;;8.77;6.55;;;;;;;;;;5050143;28;20387;-65
2021/03/05 02:13:35;;;;;;;12.30;7.75;;;;;;;;;;5050490;28;20060;-65
2021/03/05 02:16:02;;;;;;;7.88;6.70;;;;;;;;;;5049846;28;20029;-65
2021/03/05 02:18:31;;;;;;;15.18;8.38;;;;;;;;;;5050505;28;20029;-65
2021/03/05 02:20:57;;;;;;;9.20;5.60;;;;;;;;;;5049629;28;20040;-65
2021/03/05 02:23:23;;;;;;;11.80;7.38;;;;;;;;;;5049491;28;20556;-65
2021/03/05 02:25:52;;;;;;;10.68;8.07;;;;;;;;;;5049748;28;20051;-65
2021/03/05 02:28:36;;;;;;;15.88;7.45;;;;;;;;;;5050513;28;20036;-65
2021/03/05 02:31:12;;;;;;;9.93;7.63;;;;;;;;;;5049336;28;20033;-65
2021/03/05 02:33:44;;;;;;;17.05;8.65;;;;;;;;;;5032154;28;20048;-65
2021/03/05 02:36:13;;;;;;;14.63;7.35;;;;;;;;;;5050063;28;20021;-65
2021/03/05 02:38:41;;;;;;;17.95;8.60;;;;;;;;;;5049968;28;20029;-65
2021/03/05 02:41:07;;;;;;;9.32;6.93;;;;;;;;;;5049765;28;20029;-65
2021/03/05 02:43:35;;;;;;;9.40;6.80;;;;;;;;;;5050049;28;20100;-65
2021/03/05 02:46:02;;;;;;;10.65;8.15;;;;;;;;;;5049523;28;20391;-65
2021/03/05 02:48:31;;;;;;;13.23;8.30;;;;;;;;;;5050489;28;20075;-65
2021/03/05 02:51:01;;;;;;;9.18;6.70;;;;;;;;;;5049284;28;20037;-65
2021/03/05 02:53:28;;;;;;;9.65;8.63;;;;;;;;;;5050131;28;20532;-65
2021/03/05 02:55:56;;;;;;;11.05;7.65;;;;;;;;;;5049613;28;20422;-65
2021/03/05 02:58:23;;;;;;;10.90;7.13;;;;;;;;;;5050129;28;20021;-65
2021/03/05 03:00:50;;;;;;;10.88;8.00;;;;;;;;;;5049014;28;20112;-65
2021/03/05 03:03:18;;;;;;;8.50;6.82;;;;;;;;;;5049973;28;20024;-65
2021/03/05 03:05:45;;;;;;;18.25;8.63;;;;;;;;;;5049012;28;20021;-65
2021/03/05 03:08:11;;;;;;;13.13;8.30;;;;;;;;;;5049760;28;20045;-65
2021/03/05 03:10:38;;;;;;;16.83;8.88;;;;;;;;;;5049485;28;20040;-65
2021/03/05 03:13:05;;;;;;;14.80;7.35;;;;;;;;;;5049322;28;20487;-65
2021/03/05 03:15:32;;;;;;;11.10;6.45;;;;;;;;;;5049619;28;20032;-65
2021/03/05 03:17:59;;;;;;;13.23;6.50;;;;;;;;;;5049287;28;20554;-65
2021/03/05 03:20:26;;;;;;;10.23;7.65;;;;;;;;;;5049514;28;20029;-65
2021/03/05 03:22:52;;;;;;;11.07;7.95;;;;;;;;;;5049147;28;20033;-65
2021/03/05 03:25:18;;;;;;;10.65;7.07;;;;;;;;;;5049653;28;20029;-65
2021/03/05 03:27:45;;;;;;;9.18;6.80;;;;;;;;;;5049432;28;20029;-65
2021/03/05 03:30:13;;;;;;;8.65;7.13;;;;;;;;;;5049615;28;20029;-65
2021/03/05 03:32:40;;;;;;;12.63;8.10;;;;;;;;;;5049270;28;20032;-65
2021/03/05 03:35:07;;;;;;;8.15;5.85;;;;;;;;;;5050620;28;20039;-65
2021/03/05 03:37:34;;;;;;;8.80;7.80;;;;;;;;;;5053705;28;20044;-65
2021/03/05 03:40:01;;;;;;;9.30;6.22;;;;;;;;;;5053014;28;20040;-65
2021/03/05 03:42:28;;;;;;;16.92;9.00;;;;;;;;;;5053441;28;20025;-65
2021/03/05 03:44:54;;;;;;;11.75;6.18;;;;;;;;;;5052924;28;20029;-65
2021/03/05 03:47:22;;;;;;;9.13;6.82;;;;;;;;;;5053296;28;20079;-65
2021/03/05 03:49:50;;;;;;;12.95;7.22;;;;;;;;;;5052367;28;20033;-65
2021/03/05 03:52:25;;;;;;;19.80;6.75;;;;;;;;;;5053372;28;20499;-65
2021/03/05 03:54:52;;;;;;;9.73;6.30;;;;;;;;;;5052497;28;20029;-65
2021/03/05 03:57:18;;;;;;;10.73;7.03;;;;;;;;;;5053246;28;20475;-65
2021/03/05 03:59:45;;;;;;;12.80;8.55;;;;;;;;;;5052181;28;20025;-65
2021/03/05 04:02:11;;;;;;;10.35;7.85;;;;;;;;;;5053393;28;20028;-65
2021/03/05 04:04:38;;;;;;;8.35;7.10;;;;;;;;;;5052460;28;20396;-65
2021/03/05 04:07:05;;;;;;;10.98;8.25;;;;;;;;;;5051657;28;20045;-65
2021/03/05 04:09:32;;;;;;;10.13;7.60;;;;;;;;;;5052797;28;20033;-65
2021/03/05 04:11:58;;;;;;;6.72;6.00;;;;;;;;;;5052061;28;20157;-65
2021/03/05 04:14:25;;;;;;;7.22;5.75;;;;;;;;;;5052751;28;20053;-65
2021/03/05 04:16:55;;;;;;;10.65;7.28;;;;;;;;;;5052179;28;20491;-65
2021/03/05 04:19:23;;;;;;;7.43;5.72;;;;;;;;;;5052409;28;20532;-65
2021/03/05 04:21:49;;;;;;;15.48;7.97;;;;;;;;;;5051961;28;20032;-65
2021/03/05 04:24:16;;;;;;;10.60;7.80;;;;;;;;;;5052543;28;20065;-65
2021/03/05 04:26:42;;;;;;;7.47;5.63;;;;;;;;;;5052316;28;20028;-65
2021/03/05 04:29:09;;;;;;;10.73;8.43;;;;;;;;;;5052347;28;20025;-65
2021/03/05 04:31:35;;;;;;;11.68;8.68;;;;;;;;;;5052663;28;20048;-65
2021/03/05 04:34:01;;;;;;;13.75;8.43;;;;;;;;;;5051513;28;20036;-65
2021/03/05 04:36:27;;;;;;;8.07;6.30;;;;;;;;;;5052446;28;20025;-65
2021/03/05 04:38:53;;;;;;;8.23;6.63;;;;;;;;;;5051696;28;20040;-65
2021/03/05 04:41:19;;;;;;;11.18;7.07;;;;;;;;;;5052215;28;20623;-65
2021/03/05 04:43:45;;;;;;;10.75;7.00;;;;;;;;;;5051650;28;20105;-65
2021/03/05 04:46:11;;;;;;;10.63;7.43;;;;;;;;;;5051494;28;20087;-65
2021/03/05 04:48:37;;;;;;;10.50;6.53;;;;;;;;;;5052179;28;20029;-65
2021/03/05 04:51:04;;;;;;;8.65;5.85;;;;;;;;;;5051436;28;20075;-65
2021/03/05 04:53:30;;;;;;;13.52;8.88;;;;;;;;;;5052098;28;20072;-65
2021/03/05 04:55:56;;;;;;;11.88;7.93;;;;;;;;;;5051438;28;20033;-65
2021/03/05 04:58:22;;;;;;;8.23;6.38;;;;;;;;;;5052338;28;20029;-65
2021/03/05 05:00:48;;;;;;;11.07;7.18;;;;;;;;;;5050871;28;20035;-65
2021/03/05 05:03:14;;;;;;;9.10;6.55;;;;;;;;;;5051965;28;20040;-65
2021/03/05 05:05:40;;;;;;;11.93;6.10;;;;;;;;;;5051159;28;20032;-65
2021/03/05 05:08:07;;;;;;;7.80;6.95;;;;;;;;;;5051389;28;20071;-65
2021/03/05 05:10:34;;;;;;;14.45;8.63;;;;;;;;;;5051306;28;20095;-65
2021/03/05 05:13:00;;;;;;;11.52;6.55;;;;;;;;;;5051204;28;20040;-65
2021/03/05 05:15:26;;;;;;;10.32;7.22;;;;;;;;;;5051894;28;20471;-65
2021/03/05 05:17:52;;;;;;;10.13;7.03;;;;;;;;;;5050890;28;20029;-65
2021/03/05 05:20:18;;;;;;;17.08;8.52;;;;;;;;;;5051502;28;20537;-65
2021/03/05 05:22:44;;;;;;;16.25;7.32;;;;;;;;;;5050468;28;20033;-65
2021/03/05 05:25:10;;;;;;;11.57;6.80;;;;;;;;;;5051455;28;20056;-65
2021/03/05 05:27:36;;;;;;;10.65;7.07;;;;;;;;;;5051558;28;20029;-65
2021/03/05 05:30:05;;;;;;;13.73;7.63;;;;;;;;;;5051079;28;20048;-65
2021/03/05 05:32:31;;;;;;;10.07;6.55;;;;;;;;;;5051387;28;20048;-65
2021/03/05 05:34:57;;;;;;;11.45;6.80;;;;;;;;;;5050396;28;20112;-65
2021/03/05 05:37:23;;;;;;;11.18;8.23;;;;;;;;;;5051346;28;20033;-66
2021/03/05 05:39:49;;;;;;;9.77;6.65;;;;;;;;;;5050393;28;20443;-65
2021/03/05 05:42:16;;;;;;;10.88;6.35;;;;;;;;;;5051064;28;20021;-65
2021/03/05 05:44:43;;;;;;;11.45;7.28;;;;;;;;;;5050497;28;20037;-65
2021/03/05 05:47:09;;;;;;;12.02;7.45;;;;;;;;;;5051260;28;20071;-65
2021/03/05 05:49:36;;;;;;;9.88;6.40;;;;;;;;;;5051120;28;20044;-65
2021/03/05 05:52:04;;;;;;;7.07;6.47;;;;;;;;;;5050523;28;20033;-65
2021/03/05 05:54:31;;;;;;;8.23;6.72;;;;;;;;;;5051247;28;20028;-65
2021/03/05 05:56:58;;;;;;;9.18;5.13;;;;;;;;;;5050413;28;20029;-65
2021/03/05 05:59:25;;;;;;;8.05;6.72;;;;;;;;;;5050977;28;20036;-65
2021/03/05 06:01:52;;;;;;;11.38;6.70;;;;;;;;;;5050363;28;20028;-65
2021/03/05 06:04:19;;;;;;;9.35;6.60;;;;;;;;;;5050681;28;20031;-65
2021/03/05 06:06:45;;;;;;;11.95;7.38;;;;;;;;;;5049658;28;20045;-65
2021/03/05 06:09:12;;;;;;;9.27;6.05;;;;;;;;;;5032524;28;20383;-65
2021/03/05 06:11:39;;;;;;;14.30;9.00;;;;;;;;;;5050100;28;20383;-65
2021/03/05 06:14:05;;;;;;;11.35;6.82;;;;;;;;;;5050275;28;20025;-65
2021/03/05 06:16:32;;;;;;;9.93;6.30;;;;;;;;;;5050823;28;20029;-65
2021/03/05 06:18:59;;;;;;;9.57;6.10;;;;;;;;;;5049735;28;20029;-65
2021/03/05 06:21:54;;;;;;;12.57;8.02;;;;;;;;;;5050046;28;20032;-65
2021/03/05 06:24:22;;;;;;;13.07;8.35;;;;;;;;;;5029430;28;20415;-65
2021/03/05 06:26:52;;;;;;;12.68;7.13;;;;;;;;;;5049560;28;20381;-65
2021/03/05 06:29:19;;;;;;;7.43;6.25;;;;;;;;;;5050372;28;20028;-65
2021/03/05 06:31:53;;;;;;;8.50;7.00;;;;;;;;;;5049631;28;20033;-65
2021/03/05 06:34:19;;;;;;;8.60;7.70;;;;;;;;;;5050011;28;20020;-65
2021/03/05 06:36:56;;;;;;;14.20;7.13;;;;;;;;;;5049546;28;20029;-65
2021/03/05 06:39:26;;;;;;;11.98;6.47;;;;;;;;;;5050281;28;20063;-64
2021/03/05 06:42:02;;;;;;;13.50;7.18;;;;;;;;;;5049625;28;20543;-65
2021/03/05 06:44:29;;;;;;;8.18;6.32;;;;;;;;;;5050588;28;20035;-67
2021/03/05 06:46:55;;;;;;;12.75;6.50;;;;;;;;;;5050216;28;20045;-66
2021/03/05 06:49:21;;;;;;;7.68;5.93;;;;;;;;;;5050242;28;20040;-66
2021/03/05 06:51:56;;;;;;;8.02;6.25;;;;;;;;;;5049893;28;20115;-66
2021/03/05 06:54:30;;;;;;;9.38;6.95;;;;;;;;;;5050178;28;20036;-66
2021/03/05 06:56:56;;;;;;;10.10;6.65;;;;;;;;;;5049959;28;20024;-66
2021/03/05 06:59:23;;;;;;;9.55;7.55;;;;;;;;;;5050483;28;20388;-66
2021/03/05 07:01:50;;;;;;;11.38;7.82;;;;;;;;;;5048607;28;20104;-66
2021/03/05 07:04:18;;;;;;;17.40;9.70;;;;;;;;;;5044871;28;20025;-66
2021/03/05 07:06:44;;;;;;;16.02;10.38;;;;;;;;;;5046980;28;20064;-66
2021/03/05 07:09:11;;;;;;;27.60;10.48;;;;;;;;;;5054272;28;20025;-64
2021/03/05 07:11:39;;;;;;;20.52;10.55;;;;;;;;;;5051793;28;20075;-65
2021/03/05 07:14:06;;;;;;;21.02;10.48;;;;;;;;;;5045427;28;20575;-65
2021/03/05 07:16:39;;;;;;;21.52;10.07;;;;;;;;;;5040387;28;20032;-65
2021/03/05 07:19:06;;;;;;;19.92;11.00;;;;;;;;;;5054982;28;20468;-65
2021/03/05 07:21:33;;;;;;;19.05;10.50;;;;;;;;;;5064541;28;20033;-65
2021/03/05 07:24:02;;;;;;;14.23;10.38;;;;;;;;;;5055248;28;20095;-65
2021/03/05 07:26:30;;;;;;;18.83;10.10;;;;;;;;;;5048603;28;20068;-65
2021/03/05 07:28:57;;;;;;;17.75;8.55;;;;;;;;;;5052940;28;20028;-65
2021/03/05 07:31:24;;;;;;;15.75;10.27;;;;;;;;;;5046788;28;20044;-65
2021/03/05 07:33:51;;;;;;;30.58;15.10;;;;;;;;;;5054860;28;20040;-65
2021/03/05 07:36:18;;;;;;;31.33;17.77;;;;;;;;;;5042733;28;20029;-64
2021/03/05 07:38:47;;;;;;;33.92;16.70;;;;;;;;;;5048340;28;20480;-68
2021/03/05 07:41:14;;;;;;;25.13;13.57;;;;;;;;;;5036275;28;20460;-65
2021/03/05 07:43:41;;;;;;;29.13;13.90;;;;;;;;;;5060411;28;20044;-66
2021/03/05 07:46:07;;;;;;;24.02;11.88;;;;;;;;;;5058741;28;20028;-65
2021/03/05 07:48:34;;;;;;;22.27;13.15;;;;;;;;;;5055004;28;20029;-65
2021/03/05 07:51:00;;;;;;;17.77;11.73;;;;;;;;;;5048282;28;20037;-65
2021/03/05 07:53:27;;;;;;;24.92;14.93;;;;;;;;;;5055114;28;20056;-65
2021/03/05 07:55:53;;;;;;;27.95;13.98;;;;;;;;;;5051930;28;20447;-65
2021/03/05 07:58:39;;;;;;;22.73;13.43;;;;;;;;;;5052133;28;20550;-65
2021/03/05 08:01:05;;;;;;;26.52;14.82;;;;;;;;;;5039101;28;20047;-65
2021/03/05 08:03:53;;;;;;;29.08;13.77;;;;;;;;;;5053827;28;20024;-66
2021/03/05 08:06:29;;;;;;;23.67;14.43;;;;;;;;;;5050455;28;20049;-66
2021/03/05 08:09:08;;;;;;;25.58;14.85;;;;;;;;;;5050319;28;20029;-67
2021/03/05 08:11:40;;;;;;;29.73;13.48;;;;;;;;;;5039074;28;20052;-66
2021/03/05 08:14:26;;;;;;;26.80;14.18;;;;;;;;;;5054050;28;20033;-65
2021/03/05 08:16:53;;;;;;;35.08;14.32;;;;;;;;;;5051137;28;20567;-66
2021/03/05 08:19:19;;;;;;;26.45;14.15;;;;;;;;;;5051363;28;20559;-65
2021/03/05 08:21:51;;;;;;;32.50;15.38;;;;;;;;;;5048687;28;20630;-66
2021/03/05 08:24:39;;;;;;;27.02;15.23;;;;;;;;;;5047637;28;20112;-67
2021/03/05 08:27:10;;;;;;;23.95;13.13;;;;;;;;;;5039663;28;20634;-66
2021/03/05 08:30:01;;;;;;;27.08;14.52;;;;;;;;;;5028965;28;20072;-66
2021/03/05 08:35:00;;;;;;;44.65;14.63;;;;;;;;;;5064454;28;20044;-70
2021/03/05 08:37:29;;;;;;;31.60;15.13;;;;;;;;;;5055163;28;20056;-65
2021/03/05 08:40:21;;;;;;;28.38;14.55;;;;;;;;;;5049877;28;20021;-65
2021/03/05 08:42:48;;;;;;;29.73;15.63;;;;;;;;;;5051343;28;20086;-66
2021/03/05 08:45:14;;;;;;;29.52;14.35;;;;;;;;;;5069894;28;20597;-65
2021/03/05 08:47:41;;;;;;;31.02;14.13;;;;;;;;;;5066242;28;20032;-66
2021/03/05 08:50:09;;;;;;;36.83;16.10;;;;;;;;;;5066762;28;20029;-66
2021/03/05 08:52:35;;;;;;;37.28;14.30;;;;;;;;;;5045526;28;20060;-66
2021/03/05 08:55:05;;;;;;;26.45;13.35;;;;;;;;;;5044580;28;20112;-67
2021/03/05 08:57:40;;;;;;;25.65;14.63;;;;;;;;;;5036079;28;20041;-65
2021/03/05 09:00:07;;;;;;;29.50;14.25;;;;;;;;;;5039044;28;20037;-64
2021/03/05 09:02:33;;;;;;;27.83;14.57;;;;;;;;;;5051510;28;20043;-64
2021/03/05 09:05:00;;;;;;;34.75;16.63;;;;;;;;;;5063867;28;20051;-65
2021/03/05 09:07:26;;;;;;;22.95;13.00;;;;;;;;;;5039296;28;20526;-65
2021/03/05 09:09:52;;;;;;;32.15;15.10;;;;;;;;;;5064123;28;20052;-64
2021/03/05 09:12:22;;;;;;;24.90;14.38;;;;;;;;;;5064462;28;20479;-65
2021/03/05 09:14:49;;;;;;;27.55;14.23;;;;;;;;;;5044605;28;20031;-65
2021/03/05 09:17:15;;;;;;;29.95;15.05;;;;;;;;;;5052746;28;20103;-65
2021/03/05 09:19:43;;;;;;;24.13;11.88;;;;;;;;;;5050043;28;20487;-65
2021/03/05 09:22:09;;;;;;;24.00;14.27;;;;;;;;;;5050792;28;20028;-65
2021/03/05 09:24:54;;;;;;;26.90;14.20;;;;;;;;;;5048936;28;20221;-64
2021/03/05 09:27:25;;;;;;;17.58;12.02;;;;;;;;;;5063639;28;20025;-65
2021/03/05 09:29:51;;;;;;;25.77;14.60;;;;;;;;;;5038214;28;20038;-66
2021/03/05 09:32:17;;;;;;;19.90;12.68;;;;;;;;;;5034304;28;20037;-64
2021/03/05 09:34:51;;;;;;;26.75;12.55;;;;;;;;;;5035077;28;20506;-65
2021/03/05 09:37:18;;;;;;;23.70;11.68;;;;;;;;;;5041491;28;20156;-65
2021/03/05 09:39:44;;;;;;;22.25;12.45;;;;;;;;;;5046604;28;20033;-65
2021/03/05 09:42:11;;;;;;;21.05;10.98;;;;;;;;;;5049326;28;20041;-65
2021/03/05 09:44:46;;;;;;;21.38;12.13;;;;;;;;;;5048950;28;20072;-65
2021/03/05 09:47:13;;;;;;;23.92;11.60;;;;;;;;;;5048181;28;20032;-65
2021/03/05 09:49:39;;;;;;;24.27;11.80;;;;;;;;;;5041468;28;20029;-65
2021/03/05 09:52:05;;;;;;;22.02;11.05;;;;;;;;;;5046806;28;20025;-65
2021/03/05 09:54:34;;;;;;;20.80;11.07;;;;;;;;;;5043040;28;20033;-64
2021/03/05 09:57:01;;;;;;;24.80;12.18;;;;;;;;;;5049875;28;20033;-65
2021/03/05 09:59:47;;;;;;;19.92;11.60;;;;;;;;;;5059981;28;20048;-64
2021/03/05 10:02:19;;;;;;;28.35;12.05;;;;;;;;;;5065407;28;20027;-68
2021/03/05 10:04:46;;;;;;;16.25;10.52;;;;;;;;;;5047925;28;20108;-65
2021/03/05 10:07:12;;;;;;;22.58;11.70;;;;;;;;;;5048982;28;20045;-65
2021/03/05 10:09:39;;;;;;;31.52;12.73;;;;;;;;;;5048734;28;20052;-65
2021/03/05 10:12:05;;;;;;;20.13;10.73;;;;;;;;;;5049044;28;20028;-64
2021/03/05 10:14:34;;;;;;;30.33;11.95;;;;;;;;;;5047119;28;20032;-64
2021/03/05 10:17:19;;;;;;;30.50;11.00;;;;;;;;;;5062366;28;20665;-65
2021/03/05 10:19:45;;;;;;;24.25;11.52;;;;;;;;;;5068255;28;20020;-65
2021/03/05 10:22:13;;;;;;;15.52;9.95;;;;;;;;;;5062591;28;20455;-65
2021/03/05 10:24:40;;;;;;;17.30;9.60;;;;;;;;;;5048550;28;20029;-65
2021/03/05 10:27:10;;;;;;;17.10;9.85;;;;;;;;;;5062187;28;20028;-65
2021/03/05 10:29:39;;;;;;;19.77;12.07;;;;;;;;;;5068136;28;20064;-66
2021/03/05 10:32:16;;;;;;;20.95;11.98;;;;;;;;;;5069383;28;20024;-65
2021/03/05 10:34:44;;;;;;;17.02;11.60;;;;;;;;;;5068532;28;20028;-65
2021/03/05 10:37:10;;;;;;;17.02;9.82;;;;;;;;;;5068939;28;20029;-65
2021/03/05 10:39:37;;;;;;;25.33;13.75;;;;;;;;;;5064463;28;20171;-65
2021/03/05 10:42:04;;;;;;;19.83;11.57;;;;;;;;;;5047336;28;20033;-65
2021/03/05 10:44:32;;;;;;;21.33;10.95;;;;;;;;;;5048182;28;20036;-65
2021/03/05 10:46:59;;;;;;;30.63;11.63;;;;;;;;;;5047829;28;20029;-66
2021/03/05 10:49:26;;;;;;;14.63;10.60;;;;;;;;;;5062843;28;20056;-66
2021/03/05 10:51:52;;;;;;;25.58;13.77;;;;;;;;;;5068127;28;20399;-66
2021/03/05 10:54:18;;;;;;;24.05;12.45;;;;;;;;;;5069222;28;20029;-66
2021/03/05 10:56:44;;;;;;;21.83;13.80;;;;;;;;;;5063664;28;20029;-66
2021/03/05 10:59:11;;;;;;;22.98;11.95;;;;;;;;;;5053272;28;20115;-66
2021/03/05 11:01:38;;;;;;;21.92;12.23;;;;;;;;;;5063492;28;20033;-66
2021/03/05 11:04:04;;;;;;;23.95;13.15;;;;;;;;;;5048122;28;20056;-66
2021/03/05 11:06:31;;;;;;;18.27;11.73;;;;;;;;;;5048598;28;20072;-66
2021/03/05 11:08:59;;;;;;;24.52;13.25;;;;;;;;;;5047809;28;20511;-66
2021/03/05 11:11:26;;;;;;;23.60;12.38;;;;;;;;;;5060690;28;20037;-66
2021/03/05 11:13:52;;;;;;;16.48;10.07;;;;;;;;;;5046850;28;20033;-67
2021/03/05 11:16:18;;;;;;;32.05;13.73;;;;;;;;;;5042253;28;20128;-66
2021/03/05 11:18:44;;;;;;;19.33;11.13;;;;;;;;;;5046734;28;20451;-66
2021/03/05 11:21:11;;;;;;;19.58;12.35;;;;;;;;;;5047424;28;20024;-66
2021/03/05 11:23:37;;;;;;;14.98;12.60;;;;;;;;;;5042091;28;20033;-67
2021/03/05 11:26:03;;;;;;;24.00;11.52;;;;;;;;;;5044668;28;20076;-66
2021/03/05 11:28:29;;;;;;;20.42;10.50;;;;;;;;;;5037494;28;20030;-66
2021/03/05 11:30:55;;;;;;;17.42;10.73;;;;;;;;;;5041603;28;20500;-67
2021/03/05 11:33:21;;;;;;;19.48;10.20;;;;;;;;;;5046458;28;20025;-66
2021/03/05 11:35:48;;;;;;;16.00;10.00;;;;;;;;;;5047031;28;20025;-66
2021/03/05 11:38:14;;;;;;;20.05;11.65;;;;;;;;;;5048113;28;20113;-66
2021/03/05 11:40:40;;;;;;;24.85;13.38;;;;;;;;;;5047400;28;20029;-66
2021/03/05 11:43:06;;;;;;;17.88;10.40;;;;;;;;;;5048101;28;20096;-66
2021/03/05 11:45:33;;;;;;;12.57;9.43;;;;;;;;;;5048075;28;20061;-66
2021/03/05 11:48:00;;;;;;;14.52;10.32;;;;;;;;;;5046789;28;20041;-66
2021/03/05 11:50:26;;;;;;;16.95;10.38;;;;;;;;;;5047603;28;20495;-66
2021/03/05 11:52:52;;;;;;;17.83;10.48;;;;;;;;;;5047793;28;20091;-66
2021/03/05 11:55:19;;;;;;;14.45;10.45;;;;;;;;;;5045920;28;20035;-66
2021/03/05 11:57:45;;;;;;;14.73;9.55;;;;;;;;;;5039115;28;20033;-67
2021/03/05 12:00:11;;;;;;;17.90;11.00;;;;;;;;;;5052143;28;20037;-66
2021/03/05 12:02:37;;;;;;;17.85;10.02;;;;;;;;;;5055315;28;20030;-66
2021/03/05 12:05:04;;;;;;;13.27;9.57;;;;;;;;;;5062801;28;20603;-66
2021/03/05 12:07:30;;;;;;;21.90;9.70;;;;;;;;;;5051331;28;20488;-66
2021/03/05 12:09:56;;;;;;;15.30;11.02;;;;;;;;;;5048721;28;20542;-67
2021/03/05 12:12:22;;;;;;;23.48;11.13;;;;;;;;;;5046688;28;20048;-66
2021/03/05 12:14:48;;;;;;;27.60;11.35;;;;;;;;;;5051187;28;20032;-66
2021/03/05 12:17:15;;;;;;;21.02;10.80;;;;;;;;;;5046487;28;20030;-66
2021/03/05 12:19:41;;;;;;;16.30;9.80;;;;;;;;;;5039720;28;20030;-66
2021/03/05 12:22:07;;;;;;;17.92;11.75;;;;;;;;;;5031246;28;20396;-67
2021/03/05 12:24:33;;;;;;;26.83;10.38;;;;;;;;;;5061710;28;20040;-66
2021/03/05 12:26:59;;;;;;;23.10;11.90;;;;;;;;;;5053100;28;20165;-66
2021/03/05 12:29:26;;;;;;;27.83;10.75;;;;;;;;;;5041227;28;20031;-66
2021/03/05 12:31:52;;;;;;;31.52;14.25;;;;;;;;;;5043077;28;20032;-66
2021/03/05 12:34:18;;;;;;;43.42;16.23;;;;;;;;;;5047310;28;20021;-67
2021/03/05 12:36:44;;;;;;;29.23;13.68;;;;;;;;;;5049860;28;20021;-66
2021/03/05 12:39:10;;;;;;;21.88;11.68;;;;;;;;;;5060955;28;20437;-66
2021/03/05 12:41:36;;;;;;;33.10;16.40;;;;;;;;;;5060087;28;20017;-66
2021/03/05 12:44:02;;;;;;;28.40;12.90;;;;;;;;;;5050768;28;20036;-66
2021/03/05 12:46:28;;;;;;;28.15;11.68;;;;;;;;;;5049937;28;20120;-66
2021/03/05 12:48:54;;;;;;;16.95;11.50;;;;;;;;;;5050796;28;20036;-66
2021/03/05 12:51:20;;;;;;;22.00;11.25;;;;;;;;;;5057059;28;20029;-66
2021/03/05 12:53:47;;;;;;;23.08;12.70;;;;;;;;;;5049169;28;20395;-66
2021/03/05 12:56:13;;;;;;;18.80;10.25;;;;;;;;;;5051513;28;20033;-65
2021/03/05 12:58:39;;;;;;;24.95;11.02;;;;;;;;;;5049577;28;20087;-66
2021/03/05 13:01:05;;;;;;;17.10;10.52;;;;;;;;;;5050108;28;20021;-66
2021/03/05 13:03:34;;;;;;;15.77;10.85;;;;;;;;;;5059404;28;20029;-65
2021/03/05 13:06:00;;;;;;;20.20;12.50;;;;;;;;;;5047367;28;20063;-66
2021/03/05 13:08:27;;;;;;;18.58;12.27;;;;;;;;;;5061355;28;20033;-65
2021/03/05 13:10:53;;;;;;;22.75;11.00;;;;;;;;;;5048070;28;20044;-66
2021/03/05 13:13:19;;;;;;;22.52;11.27;;;;;;;;;;5050447;28;20400;-65
2021/03/05 13:15:46;;;;;;;29.42;13.07;;;;;;;;;;5055609;28;20047;-66
2021/03/05 13:18:12;;;;;;;15.15;10.07;;;;;;;;;;5066179;28;20059;-66
2021/03/05 13:20:38;;;;;;;17.42;10.52;;;;;;;;;;5069242;28;20483;-66
2021/03/05 13:23:04;;;;;;;16.73;10.35;;;;;;;;;;5065768;28;20028;-66
2021/03/05 13:25:34;;;;;;;12.98;7.93;;;;;;;;;;5053766;28;20028;-65
2021/03/05 13:28:01;;;;;;;22.88;8.95;;;;;;;;;;5059264;28;20385;-66
2021/03/05 13:30:27;;;;;;;16.75;8.40;;;;;;;;;;5047325;28;20087;-66
2021/03/05 13:32:53;;;;;;;17.70;9.63;;;;;;;;;;5039579;28;20119;-66
2021/03/05 13:35:19;;;;;;;18.17;9.40;;;;;;;;;;5054689;28;20025;-66
2021/03/05 13:37:45;;;;;;;17.65;9.77;;;;;;;;;;5053475;28;20112;-66
2021/03/05 13:40:12;;;;;;;13.65;9.55;;;;;;;;;;5060550;28;20086;-66
2021/03/05 13:42:38;;;;;;;15.20;8.57;;;;;;;;;;5048989;28;20064;-66
2021/03/05 13:45:05;;;;;;;14.93;8.32;;;;;;;;;;5048011;28;20685;-66
2021/03/05 13:47:32;;;;;;;13.48;8.48;;;;;;;;;;5053223;28;20021;-65
2021/03/05 13:49:58;;;;;;;18.15;9.23;;;;;;;;;;5055447;28;20045;-66
2021/03/05 13:52:24;;;;;;;15.05;8.02;;;;;;;;;;5068276;28;20052;-66
2021/03/05 13:54:50;;;;;;;14.75;7.63;;;;;;;;;;5068091;28;20032;-66
2021/03/05 13:57:16;;;;;;;16.50;8.98;;;;;;;;;;5068923;28;20104;-66
2021/03/05 13:59:42;;;;;;;23.10;10.70;;;;;;;;;;5057756;28;20499;-66
2021/03/05 14:02:08;;;;;;;15.73;9.00;;;;;;;;;;5048932;28;20064;-66
2021/03/05 14:04:34;;;;;;;13.13;7.53;;;;;;;;;;5048338;28;20060;-66
2021/03/05 14:07:00;;;;;;;11.93;9.18;;;;;;;;;;5042992;28;20091;-66
2021/03/05 14:09:26;;;;;;;13.80;7.90;;;;;;;;;;5050907;28;20102;-66
2021/03/05 14:11:52;;;;;;;18.08;9.95;;;;;;;;;;5065070;28;20467;-66
2021/03/05 14:14:18;;;;;;;15.85;10.18;;;;;;;;;;5048848;28;20554;-66
2021/03/05 14:16:44;;;;;;;16.77;8.85;;;;;;;;;;5050248;28;20032;-66
2021/03/05 14:19:11;;;;;;;11.80;7.90;;;;;;;;;;5067924;28;20020;-66
2021/03/05 14:21:37;;;;;;;20.38;10.32;;;;;;;;;;5050184;28;20021;-66
2021/03/05 14:24:03;;;;;;;21.70;11.43;;;;;;;;;;5044809;28;20043;-66
2021/03/05 14:26:29;;;;;;;18.17;9.32;;;;;;;;;;5049863;28;20060;-71
2021/03/05 14:28:55;;;;;;;16.40;9.43;;;;;;;;;;5047039;28;20037;-66
2021/03/05 14:31:22;;;;;;;9.18;8.23;;;;;;;;;;5042003;28;20049;-66